Airfield :
LOGIN :

Register | Disclaimer

   EN    FR    IT 

 










Legend :    VFR   Marginal VFR   IFR   Intensive IFR   Very Intensive IFR
Visi :
Ceiling :
>= 8 km
>= 3000ft
5 to 8 km
1000 to 3000 ft
1500m to 5 km
500 to 1000 ft
800 to 1500m
200 to 500 ft
< 800m
< 200 ft
Symbols :   Thunderstorms  Fog  Heavy snow  Heavy precipitations  Wind > 20 kt
SIGMETs :     Misc.  Thunderstorms  Icing  Turbulence  Mountain Waves  Volcanic Ashes






- Airport Elevation : 364 ft
- IATA code : FRA


EDDF - Frankfurt Int.

CURRENT METAR :
  • 060550Z 09005KT CAVOK 06/00 Q1021 NOSIG

EXPIRED METARs :
  • 060520Z 06003KT CAVOK 06/M01 Q1021 NOSIG
  • 060450Z 36004KT 330V040 CAVOK 05/M01 Q1021 NOSIG
  • 060420Z 01006KT CAVOK 07/M01 Q1020 NOSIG
  • 060350Z 01005KT CAVOK 07/M00 Q1020 NOSIG

TAF TAF EDDF
Valid from the 06 at 06:00 until the 07 at 12:00 UTC


060500Z 0606/0712 VRB03KT CAVOK
BECMG 0607/0609 20007KT
BECMG 0619/0621 VRB03KT
BECMG 0708/0710 04007KT



MET'MAP, your aeronautical weather chart ! - Copyright ORBIFLY December 2007 - Disclaimer

ORBIFLY MET'MAP TEAM :

Programming & Development : Alexandra Zaïnal
Concept & original design : Baudouin d'Aumeries
Assistance for programming : Marc-Olivier Méhu
Technical & hardware support : Manuel Goepfert

Contact : metmap@orbifly.com




SOURCES & CREDITS :

   NOAA